createdAt,value
2022-09-28T00:02:28.141Z,94576.63
2022-09-28T00:05:14.605Z,94571.84
2022-09-28T00:08:01.090Z,94567.06
2022-09-28T00:10:54.979Z,94571.25
2022-09-28T00:13:43.007Z,94555.69
2022-09-28T00:16:32.904Z,94565.63
2022-09-28T00:19:18.947Z,94582.34
2022-09-28T00:22:05.164Z,94568.88
2022-09-28T00:24:51.125Z,94574.88
2022-09-28T00:27:36.908Z,94555.56
2022-09-28T00:30:23.008Z,94568.06
2022-09-28T00:33:08.708Z,94555.19
2022-09-28T00:35:56.402Z,94571.81
2022-09-28T00:38:42.894Z,94557.06
2022-09-28T00:41:29.816Z,94557.66
2022-09-28T00:44:34.621Z,94562.22
2022-09-28T00:47:23.567Z,94565.84
2022-09-28T00:50:32.065Z,94574.38
2022-09-28T00:53:22.068Z,94580.59
2022-09-28T00:56:13.548Z,94572.41
2022-09-28T00:59:00.143Z,94548.66
2022-09-28T01:01:46.851Z,94552.28
2022-09-28T01:04:33.168Z,94551.94
2022-09-28T01:07:20.288Z,94546.88
2022-09-28T01:10:07.434Z,94531.56
2022-09-28T01:12:55.807Z,94543.75
2022-09-28T01:15:51.958Z,94544.63
2022-09-28T01:18:53.854Z,94538.69
2022-09-28T01:22:17.910Z,94549.00
2022-09-28T01:25:12.346Z,94543.72
2022-09-28T01:28:07.108Z,94552.13
2022-09-28T01:31:00.376Z,94543.50
2022-09-28T01:33:50.505Z,94550.41
2022-09-28T01:36:42.368Z,94532.13
2022-09-28T01:39:38.958Z,94542.56
2022-09-28T01:42:28.194Z,94538.59
2022-09-28T01:45:22.924Z,94531.59
2022-09-28T01:48:11.718Z,94542.69
2022-09-28T01:50:59.776Z,94547.59
2022-09-28T01:53:52.841Z,94521.50
2022-09-28T01:56:46.024Z,94546.88
2022-09-28T01:59:33.794Z,94549.69
2022-09-28T02:02:25.306Z,94556.72
2022-09-28T02:05:18.521Z,94542.69
2022-09-28T02:08:21.788Z,94538.94
2022-09-28T02:11:19.639Z,94545.84
2022-09-28T02:14:09.102Z,94548.41
2022-09-28T02:16:55.525Z,94527.03
2022-09-28T02:19:47.782Z,94548.78
2022-09-28T02:22:43.783Z,94541.75
2022-09-28T02:25:36.812Z,94545.59
2022-09-28T02:28:23.272Z,94523.41
2022-09-28T02:31:10.030Z,94547.59
2022-09-28T02:33:57.822Z,94540.81
2022-09-28T02:36:45.037Z,94546.78
2022-09-28T02:39:31.708Z,94552.28
2022-09-28T02:42:27.831Z,94543.88
2022-09-28T02:45:25.433Z,94536.63
2022-09-28T02:48:41.222Z,94553.34
2022-09-28T02:51:36.255Z,94544.66
2022-09-28T02:54:52.989Z,94548.88
2022-09-28T02:58:02.062Z,94551.56
2022-09-28T03:01:15.358Z,94551.81
2022-09-28T03:04:04.889Z,94550.88
2022-09-28T03:07:00.278Z,94552.97
2022-09-28T03:09:56.180Z,94538.69
2022-09-28T03:12:44.633Z,94538.47
2022-09-28T03:15:32.813Z,94549.22
2022-09-28T03:18:19.325Z,94548.19
2022-09-28T03:21:05.821Z,94532.38
2022-09-28T03:23:51.749Z,94521.53
2022-09-28T03:26:40.626Z,94523.16
2022-09-28T03:29:27.006Z,94516.72
2022-09-28T03:32:18.858Z,94521.28
2022-09-28T03:35:05.453Z,94526.09
2022-09-28T03:37:55.913Z,94520.09
2022-09-28T03:40:43.320Z,94532.38
2022-09-28T03:43:31.180Z,94529.13
2022-09-28T03:46:19.095Z,94530.50
2022-09-28T03:49:12.538Z,94518.94
2022-09-28T03:51:58.474Z,94527.97
2022-09-28T03:54:48.953Z,94527.50
2022-09-28T03:57:35.660Z,94521.53
2022-09-28T04:00:21.698Z,94527.50
2022-09-28T04:03:08.620Z,94515.34
2022-09-28T04:05:54.911Z,94534.63
2022-09-28T04:08:43.460Z,94533.00
2022-09-28T04:11:47.563Z,94531.13
2022-09-28T04:14:37.014Z,94533.81
2022-09-28T04:17:23.307Z,94539.44
2022-09-28T04:20:09.503Z,94527.03
2022-09-28T04:23:17.051Z,94538.72
2022-09-28T04:26:04.798Z,94526.66
2022-09-28T04:29:09.189Z,94529.84
2022-09-28T04:31:55.888Z,94534.72
2022-09-28T04:34:54.132Z,94541.75
2022-09-28T04:37:40.703Z,94523.28
2022-09-28T04:40:26.955Z,94537.78
2022-09-28T04:43:12.829Z,94547.84
2022-09-28T04:46:00.466Z,94535.44
2022-09-28T04:48:50.781Z,94542.34
2022-09-28T04:52:04.796Z,94549.97
2022-09-28T04:54:52.615Z,94554.28
2022-09-28T04:57:38.639Z,94561.28
2022-09-28T05:00:24.610Z,94554.59
2022-09-28T05:03:24.954Z,94564.66
2022-09-28T05:06:27.981Z,94555.31
2022-09-28T05:09:19.468Z,94555.56
2022-09-28T05:12:06.407Z,94563.28
2022-09-28T05:14:52.765Z,94576.38
2022-09-28T05:17:38.888Z,94560.34
2022-09-28T05:20:47.497Z,94554.75
2022-09-28T05:23:34.661Z,94575.69
2022-09-28T05:26:21.101Z,94569.22
2022-09-28T05:29:07.981Z,94566.03
2022-09-28T05:32:06.015Z,94553.06
2022-09-28T05:34:55.907Z,94567.00
2022-09-28T05:37:46.560Z,94564.31
2022-09-28T05:40:32.797Z,94565.94
2022-09-28T05:43:18.799Z,94574.38
2022-09-28T05:46:05.962Z,94566.28
2022-09-28T05:48:55.943Z,94567.41
2022-09-28T05:51:43.006Z,94563.91
2022-09-28T05:54:28.835Z,94558.53
2022-09-28T05:57:15.050Z,94561.44
2022-09-28T06:00:01.454Z,94554.91
2022-09-28T06:02:56.407Z,94562.00
2022-09-28T06:05:42.604Z,94561.75
2022-09-28T06:08:28.560Z,94561.22
2022-09-28T06:11:27.028Z,94545.03
2022-09-28T06:14:14.483Z,94554.28
2022-09-28T06:17:00.837Z,94561.66
2022-09-28T06:19:47.722Z,94565.72
2022-09-28T06:22:54.554Z,94569.66
2022-09-28T06:25:40.950Z,94567.56
2022-09-28T06:28:26.997Z,94567.41
2022-09-28T06:31:12.923Z,94567.25
2022-09-28T06:34:04.192Z,94571.94
2022-09-28T06:36:50.276Z,94570.19
2022-09-28T06:39:36.183Z,94545.22
2022-09-28T06:42:22.114Z,94556.13
2022-09-28T06:45:28.252Z,94557.84
2022-09-28T06:48:50.155Z,94574.22
2022-09-28T06:51:55.111Z,94566.22
2022-09-28T06:54:53.113Z,94566.41
2022-09-28T06:57:48.582Z,94565.25
2022-09-28T07:00:36.071Z,94546.38
2022-09-28T07:03:23.172Z,94562.56
2022-09-28T07:06:31.014Z,94558.06
2022-09-28T07:09:32.987Z,94574.44
2022-09-28T07:12:39.889Z,94565.44
2022-09-28T07:15:44.892Z,94566.09
2022-09-28T07:18:33.532Z,94567.19
2022-09-28T07:21:27.363Z,94568.19
2022-09-28T07:24:17.719Z,94570.16
2022-09-28T07:27:28.125Z,94564.19
2022-09-28T07:30:34.819Z,94555.66
2022-09-28T07:33:40.888Z,94568.53
2022-09-28T07:36:46.809Z,94568.22
2022-09-28T07:39:52.572Z,94562.69
2022-09-28T07:42:38.495Z,94560.66
2022-09-28T07:45:24.990Z,94553.75
2022-09-28T07:54:13.724Z,94560.47
2022-09-28T07:57:21.079Z,94555.72
2022-09-28T08:00:29.805Z,94554.22
2022-09-28T08:03:19.937Z,94548.59
2022-09-28T08:06:09.855Z,94572.03
2022-09-28T08:08:56.952Z,94562.28
2022-09-28T08:11:54.854Z,94563.22
2022-09-28T08:15:04.589Z,94565.34
2022-09-28T08:18:06.351Z,94562.19
2022-09-28T08:21:11.752Z,94560.06
2022-09-28T08:23:57.598Z,94561.78
2022-09-28T08:26:44.289Z,94544.31
2022-09-28T08:29:33.635Z,94565.97
2022-09-28T08:32:49.387Z,94563.38
2022-09-28T08:35:58.913Z,94570.66
2022-09-28T08:39:10.698Z,94564.28
2022-09-28T08:42:32.327Z,94577.66
2022-09-28T08:45:51.185Z,94582.09
2022-09-28T08:49:26.565Z,94577.72
2022-09-28T08:52:35.968Z,94530.78
2022-09-28T08:55:45.267Z,94570.53
2022-09-28T08:58:34.337Z,94576.25
2022-09-28T09:01:21.379Z,94571.66
2022-09-28T09:04:09.194Z,94557.72
2022-09-28T09:07:39.482Z,94574.84
2022-09-28T09:10:42.677Z,94577.22
2022-09-28T09:13:45.805Z,94560.16
2022-09-28T09:16:39.611Z,94583.75
2022-09-28T09:19:45.467Z,94567.19
2022-09-28T09:22:48.643Z,94549.00
2022-09-28T09:25:50.893Z,94574.47
2022-09-28T09:29:11.617Z,94569.41
2022-09-28T09:32:10.047Z,94571.66
2022-09-28T09:35:28.488Z,94555.09
2022-09-28T09:38:27.836Z,94576.31
2022-09-28T09:41:58.172Z,94575.97
2022-09-28T09:45:06.146Z,94566.41
2022-09-28T09:48:43.387Z,94579.88
2022-09-28T09:52:12.990Z,94580.69
2022-09-28T09:55:14.165Z,94586.94
2022-09-28T09:58:15.994Z,94579.94
2022-09-28T10:01:12.542Z,94572.81
2022-09-28T10:04:26.342Z,94586.63
2022-09-28T10:07:43.298Z,94606.59
2022-09-28T10:10:34.524Z,94587.38
2022-09-28T10:13:29.397Z,94578.41
2022-09-28T10:16:19.128Z,94589.91
2022-09-28T10:19:15.637Z,94601.47
2022-09-28T10:22:28.583Z,94607.28
2022-09-28T10:25:18.220Z,94609.06
2022-09-28T10:28:06.370Z,94604.28
2022-09-28T10:30:53.117Z,94610.34
2022-09-28T10:33:39.121Z,94605.22
2022-09-28T10:36:26.308Z,94601.38
2022-09-28T10:39:58.241Z,94603.00
2022-09-28T10:42:47.038Z,94581.25
2022-09-28T10:45:36.417Z,94574.53
2022-09-28T10:48:23.047Z,94584.16
2022-09-28T10:51:09.287Z,94593.19
2022-09-28T10:54:02.485Z,94594.41
2022-09-28T10:57:28.341Z,94600.44
2022-09-28T11:00:39.392Z,94593.94
2022-09-28T11:03:50.352Z,94591.28
2022-09-28T11:06:39.433Z,94590.06
2022-09-28T11:09:31.501Z,94582.75
2022-09-28T11:12:26.311Z,94580.63
2022-09-28T11:15:38.858Z,94584.44
2022-09-28T11:18:31.889Z,94571.94
2022-09-28T11:21:26.138Z,94578.78
2022-09-28T11:24:26.048Z,94578.44
2022-09-28T11:27:34.185Z,94580.09
2022-09-28T11:30:24.859Z,94580.94
2022-09-28T11:33:42.569Z,94577.13
2022-09-28T11:36:47.029Z,94575.78
2022-09-28T11:40:01.684Z,94584.22
2022-09-28T11:43:00.547Z,94577.69
2022-09-28T11:45:55.044Z,94571.75
2022-09-28T11:48:58.281Z,94569.28
2022-09-28T11:51:45.966Z,94556.50
2022-09-28T11:54:43.208Z,94561.69
2022-09-28T11:57:35.890Z,94555.16
2022-09-28T12:00:22.495Z,94552.47
2022-09-28T12:03:29.026Z,94541.59
2022-09-28T12:06:19.454Z,94541.34
2022-09-28T12:09:11.622Z,94527.19
2022-09-28T12:12:34.585Z,94527.72
2022-09-28T12:15:59.557Z,94537.78
2022-09-28T12:19:08.219Z,94524.69
2022-09-28T12:21:57.084Z,94519.75
2022-09-28T12:24:47.543Z,94535.72
2022-09-28T12:27:51.651Z,94519.97
2022-09-28T12:30:40.753Z,94503.88
2022-09-28T12:33:26.917Z,94498.19
2022-09-28T12:36:19.760Z,94493.28
2022-09-28T12:39:40.618Z,94504.97
2022-09-28T12:42:53.045Z,94515.22
2022-09-28T12:46:11.998Z,94527.13
2022-09-28T12:50:13.832Z,94512.66
2022-09-28T12:52:36.910Z,94519.09
2022-09-28T12:55:44.189Z,94504.25
2022-09-28T12:58:52.231Z,94514.22
2022-09-28T13:01:43.230Z,94513.78
2022-09-28T13:04:56.945Z,94523.25
2022-09-28T13:07:53.970Z,94518.91
2022-09-28T13:10:44.415Z,94511.41
2022-09-28T13:14:17.784Z,94515.47
2022-09-28T13:17:27.065Z,94516.59
2022-09-28T13:20:31.265Z,94511.78
2022-09-28T13:23:22.002Z,94503.84
2022-09-28T13:26:31.798Z,94521.34
2022-09-28T13:29:19.268Z,94522.41
2022-09-28T13:32:08.239Z,94515.91
2022-09-28T13:34:54.849Z,94511.97
2022-09-28T13:37:41.585Z,94509.09
2022-09-28T13:41:04.709Z,94503.59
2022-09-28T13:44:02.999Z,94511.19
2022-09-28T13:46:55.228Z,94513.84
2022-09-28T13:50:00.740Z,94506.44
2022-09-28T13:53:11.806Z,94488.16
2022-09-28T13:56:28.439Z,94508.63
2022-09-28T13:59:24.883Z,94486.31
2022-09-28T14:02:37.779Z,94487.41
2022-09-28T14:05:25.465Z,94485.56
2022-09-28T14:08:23.570Z,94482.56
2022-09-28T14:11:24.804Z,94465.19
2022-09-28T14:14:11.898Z,94476.00
2022-09-28T14:17:27.229Z,94486.28
2022-09-28T14:20:15.611Z,94490.03
2022-09-28T14:23:25.310Z,94500.38
2022-09-28T14:26:11.360Z,94496.84
2022-09-28T14:29:28.796Z,94493.81
2022-09-28T14:32:25.113Z,94506.19
2022-09-28T14:35:20.583Z,94490.66
2022-09-28T14:38:33.242Z,94494.59
2022-09-28T14:41:33.795Z,94490.34
2022-09-28T14:44:20.132Z,94500.44
2022-09-28T14:47:33.526Z,94509.28
2022-09-28T14:50:28.308Z,94502.50
2022-09-28T14:53:20.240Z,94503.75
2022-09-28T14:56:08.707Z,94511.78
2022-09-28T14:58:57.723Z,94513.09
2022-09-28T15:01:51.532Z,94510.03
2022-09-28T15:04:43.073Z,94520.81
2022-09-28T15:07:37.533Z,94503.63
2022-09-28T15:10:31.326Z,94523.41
2022-09-28T15:13:28.222Z,94511.44
2022-09-28T15:16:16.534Z,94511.81
2022-09-28T15:19:24.607Z,94501.19
2022-09-28T15:22:17.955Z,94523.16
2022-09-28T15:25:13.751Z,94515.34
2022-09-28T15:28:06.837Z,94523.16
2022-09-28T15:31:00.458Z,94534.06
2022-09-28T15:34:04.855Z,94529.06
2022-09-28T15:36:51.134Z,94526.44
2022-09-28T15:39:37.127Z,94535.00
2022-09-28T15:42:23.537Z,94521.47
2022-09-28T15:45:27.772Z,94541.25
2022-09-28T15:48:27.843Z,94537.63
2022-09-28T15:51:13.949Z,94540.81
2022-09-28T15:54:19.538Z,94537.06
2022-09-28T15:57:06.053Z,94547.63
2022-09-28T15:59:59.289Z,94534.34
2022-09-28T16:03:08.782Z,94540.69
2022-09-28T16:05:57.809Z,94529.00
2022-09-28T16:08:45.678Z,94536.88
2022-09-28T16:11:38.228Z,94530.13
2022-09-28T16:14:25.124Z,94530.41
2022-09-28T16:17:17.392Z,94536.97
2022-09-28T16:20:18.866Z,94536.72
2022-09-28T16:23:34.607Z,94547.94
2022-09-28T16:26:34.137Z,94558.13
2022-09-28T16:29:40.817Z,94564.31
2022-09-28T16:32:26.737Z,94563.78
2022-09-28T16:35:23.083Z,94557.50
2022-09-28T16:38:17.117Z,94566.78
2022-09-28T16:41:03.399Z,94551.84
2022-09-28T16:43:55.136Z,94563.00
2022-09-28T16:46:42.890Z,94563.56
2022-09-28T16:49:31.630Z,94568.75
2022-09-28T16:52:37.786Z,94569.00
2022-09-28T16:55:39.436Z,94546.47
2022-09-28T16:58:27.824Z,94570.63
2022-09-28T17:01:14.041Z,94569.03
2022-09-28T17:04:00.010Z,94564.41
2022-09-28T17:06:46.037Z,94559.28
2022-09-28T17:09:32.067Z,94572.25
2022-09-28T17:12:24.681Z,94566.81
2022-09-28T17:15:10.915Z,94575.78
2022-09-28T17:17:57.529Z,94579.84
2022-09-28T17:20:49.265Z,94584.16
2022-09-28T17:23:35.720Z,94577.91
2022-09-28T17:26:29.262Z,94583.63
2022-09-28T17:29:15.925Z,94560.00
2022-09-28T17:32:02.483Z,94582.25
2022-09-28T17:35:00.743Z,94596.41
2022-09-28T17:37:55.049Z,94593.16
2022-09-28T17:40:45.545Z,94598.59
2022-09-28T17:43:31.904Z,94601.84
2022-09-28T17:46:23.018Z,94606.75
2022-09-28T17:49:11.482Z,94602.94
2022-09-28T17:51:57.631Z,94607.28
2022-09-28T17:54:44.497Z,94600.75
2022-09-28T17:57:30.692Z,94616.22
2022-09-28T18:00:17.681Z,94618.13
2022-09-28T18:03:03.747Z,94614.88
2022-09-28T18:05:58.573Z,94633.84
2022-09-28T18:08:44.534Z,94625.38
2022-09-28T18:11:32.170Z,94635.72
2022-09-28T18:14:18.037Z,94643.03
2022-09-28T18:17:04.282Z,94645.22
2022-09-28T18:19:50.614Z,94649.53
2022-09-28T18:22:37.161Z,94651.69
2022-09-28T18:25:23.193Z,94641.38
2022-09-28T18:28:10.180Z,94649.25
2022-09-28T18:30:56.320Z,94656.03
2022-09-28T18:33:43.343Z,94654.66
2022-09-28T18:36:33.312Z,94656.78
2022-09-28T18:39:19.387Z,94657.34
2022-09-28T18:42:05.877Z,94651.03
2022-09-28T18:44:52.237Z,94648.25
2022-09-28T18:47:39.114Z,94649.63
2022-09-28T18:50:25.515Z,94657.25
2022-09-28T18:53:12.036Z,94649.63
2022-09-28T18:55:58.193Z,94647.69
2022-09-28T18:58:45.038Z,94656.94
2022-09-28T19:01:31.672Z,94649.31
2022-09-28T19:04:20.074Z,94648.19
2022-09-28T19:07:07.372Z,94652.53
2022-09-28T19:09:53.890Z,94643.28
2022-09-28T19:12:40.089Z,94642.69
2022-09-28T19:15:26.204Z,94669.31
2022-09-28T19:18:12.399Z,94683.13
2022-09-28T19:21:05.323Z,94660.25
2022-09-28T19:23:53.626Z,94667.34
2022-09-28T19:26:40.060Z,94676.81
2022-09-28T19:29:26.328Z,94664.81
2022-09-28T19:32:12.775Z,94688.97
2022-09-28T19:34:59.365Z,94693.56
2022-09-28T19:37:46.775Z,94696.22
2022-09-28T19:40:36.927Z,94692.44
2022-09-28T19:43:22.765Z,94691.84
2022-09-28T19:46:10.579Z,94697.28
2022-09-28T19:49:00.824Z,94700.50
2022-09-28T19:52:11.557Z,94703.78
2022-09-28T19:54:58.201Z,94689.63
2022-09-28T19:57:47.930Z,94688.22
2022-09-28T20:00:34.048Z,94695.56
2022-09-28T20:03:19.990Z,94688.47
2022-09-28T20:06:06.262Z,94706.59
2022-09-28T20:08:52.832Z,94703.03
2022-09-28T20:11:39.117Z,94698.44
2022-09-28T20:14:28.141Z,94694.53
2022-09-28T20:17:16.563Z,94686.97
2022-09-28T20:20:02.800Z,94690.78
2022-09-28T20:22:48.781Z,94683.41
2022-09-28T20:25:34.974Z,94682.06
2022-09-28T20:28:20.886Z,94670.34
2022-09-28T20:31:28.615Z,94678.25
2022-09-28T20:34:14.924Z,94679.59
2022-09-28T20:37:01.633Z,94679.53
2022-09-28T20:39:47.947Z,94677.06
2022-09-28T20:42:34.238Z,94669.44
2022-09-28T20:45:20.065Z,94688.97
2022-09-28T20:48:06.505Z,94684.28
2022-09-28T20:51:03.210Z,94684.56
2022-09-28T20:53:54.493Z,94685.56
2022-09-28T20:56:40.771Z,94698.66
2022-09-28T20:59:27.789Z,94695.63
2022-09-28T21:02:16.011Z,94692.91
2022-09-28T21:05:02.185Z,94684.75
2022-09-28T21:07:47.982Z,94668.72
2022-09-28T21:10:33.737Z,94682.03
2022-09-28T21:13:23.532Z,94676.88
2022-09-28T21:16:15.060Z,94677.38
2022-09-28T21:19:01.441Z,94672.19
2022-09-28T21:21:47.608Z,94676.84
2022-09-28T21:24:33.657Z,94655.41
2022-09-28T21:27:19.789Z,94670.03
2022-09-28T21:30:06.407Z,94673.81
2022-09-28T21:32:52.645Z,94665.66
2022-09-28T21:35:41.262Z,94668.03
2022-09-28T21:38:27.278Z,94662.06
2022-09-28T21:41:13.411Z,94663.09
2022-09-28T21:43:59.709Z,94652.84
2022-09-28T21:46:45.893Z,94651.53
2022-09-28T21:49:32.268Z,94628.06
2022-09-28T21:52:18.267Z,94640.34
2022-09-28T21:55:04.515Z,94655.47
2022-09-28T21:57:51.451Z,94641.63
2022-09-28T22:00:37.843Z,94649.75
2022-09-28T22:03:24.597Z,94636.72
2022-09-28T22:06:11.160Z,94657.78
2022-09-28T22:08:57.458Z,94644.06
2022-09-28T22:11:43.473Z,94627.16
2022-09-28T22:14:29.348Z,94621.53
2022-09-28T22:17:15.254Z,94625.94
2022-09-28T22:20:01.480Z,94626.38
2022-09-28T22:22:50.866Z,94639.66
2022-09-28T22:25:36.713Z,94636.13
2022-09-28T22:28:22.816Z,94628.81
2022-09-28T22:31:09.007Z,94623.94
2022-09-28T22:33:55.642Z,94622.59
2022-09-28T22:36:41.657Z,94602.00
2022-09-28T22:39:27.443Z,94621.78
2022-09-28T22:42:13.376Z,94620.97
2022-09-28T22:44:59.561Z,94623.69
2022-09-28T22:47:45.531Z,94606.63
2022-09-28T22:50:31.637Z,94616.63
2022-09-28T22:53:18.668Z,94604.13
2022-09-28T22:56:06.010Z,94597.34
2022-09-28T22:58:52.429Z,94598.97
2022-09-28T23:01:39.030Z,94616.06
2022-09-28T23:04:25.170Z,94601.34
2022-09-28T23:07:11.172Z,94610.28
2022-09-28T23:09:58.775Z,94620.09
2022-09-28T23:12:44.625Z,94618.22
2022-09-28T23:15:30.504Z,94628.22
2022-09-28T23:18:16.767Z,94634.44
2022-09-28T23:21:05.613Z,94619.53
2022-09-28T23:23:56.771Z,94620.56
2022-09-28T23:26:42.725Z,94617.63
2022-09-28T23:29:28.743Z,94613.00
2022-09-28T23:32:16.654Z,94622.50
2022-09-28T23:35:02.674Z,94604.50
2022-09-28T23:37:51.793Z,94615.97
2022-09-28T23:40:37.965Z,94621.94
2022-09-28T23:43:23.885Z,94615.38
2022-09-28T23:46:09.876Z,94608.31
2022-09-28T23:48:55.669Z,94599.97
2022-09-28T23:51:41.568Z,94605.06
2022-09-28T23:54:27.549Z,94606.13
2022-09-28T23:57:13.529Z,94588.78
2022-09-28T23:59:59.463Z,94604.56
